sensor_id;sensor_type;location;lat;lon;timestamp;pressure;altitude;pressure_sealevel;temperature;humidity
15529;BME280;7866;52.280;9.500;2023-05-25T00:02:20;101273.31;;;10.07;87.72
15529;BME280;7866;52.280;9.500;2023-05-25T00:07:23;101267.69;;;10.10;88.04
15529;BME280;7866;52.280;9.500;2023-05-25T00:12:26;101254.03;;;10.03;87.63
15529;BME280;7866;52.280;9.500;2023-05-25T00:17:28;101269.78;;;9.97;88.24
15529;BME280;7866;52.280;9.500;2023-05-25T00:22:31;101266.16;;;9.88;87.55
15529;BME280;7866;52.280;9.500;2023-05-25T00:27:35;101261.38;;;9.82;88.31
15529;BME280;7866;52.280;9.500;2023-05-25T00:32:36;101255.31;;;9.80;87.80
15529;BME280;7866;52.280;9.500;2023-05-25T00:37:38;101262.50;;;9.79;88.27
15529;BME280;7866;52.280;9.500;2023-05-25T00:42:41;101266.84;;;9.71;87.76
15529;BME280;7866;52.280;9.500;2023-05-25T00:47:44;101264.19;;;9.71;88.35
15529;BME280;7866;52.280;9.500;2023-05-25T00:52:46;101252.63;;;9.80;87.92
15529;BME280;7866;52.280;9.500;2023-05-25T00:57:50;101258.53;;;9.93;87.98
15529;BME280;7866;52.280;9.500;2023-05-25T01:02:55;101255.69;;;10.04;87.65
15529;BME280;7866;52.280;9.500;2023-05-25T01:07:59;101251.31;;;10.13;87.65
15529;BME280;7866;52.280;9.500;2023-05-25T01:13:06;101251.75;;;10.28;87.40
15529;BME280;7866;52.280;9.500;2023-05-25T01:18:09;101252.84;;;10.35;87.06
15529;BME280;7866;52.280;9.500;2023-05-25T01:23:16;101255.38;;;10.46;86.99
15529;BME280;7866;52.280;9.500;2023-05-25T01:28:22;101243.81;;;10.36;86.77
15529;BME280;7866;52.280;9.500;2023-05-25T01:33:26;101250.69;;;10.48;86.40
15529;BME280;7866;52.280;9.500;2023-05-25T01:38:30;101255.50;;;10.45;86.75
15529;BME280;7866;52.280;9.500;2023-05-25T01:43:32;101254.78;;;10.52;86.90
15529;BME280;7866;52.280;9.500;2023-05-25T01:48:39;101244.94;;;10.43;86.92
15529;BME280;7866;52.280;9.500;2023-05-25T01:53:48;101243.38;;;10.41;87.09
15529;BME280;7866;52.280;9.500;2023-05-25T01:58:53;101231.56;;;10.24;86.96
15529;BME280;7866;52.280;9.500;2023-05-25T02:03:56;101243.44;;;10.11;87.46
15529;BME280;7866;52.280;9.500;2023-05-25T02:08:59;101244.03;;;10.05;87.74
15529;BME280;7866;52.280;9.500;2023-05-25T02:14:01;101251.78;;;9.89;88.27
15529;BME280;7866;52.280;9.500;2023-05-25T02:19:03;101242.78;;;9.71;87.78
15529;BME280;7866;52.280;9.500;2023-05-25T02:24:06;101240.13;;;9.71;88.63
15529;BME280;7866;52.280;9.500;2023-05-25T02:29:08;101250.09;;;9.59;88.67
15529;BME280;7866;52.280;9.500;2023-05-25T02:34:10;101248.13;;;9.61;88.60
15529;BME280;7866;52.280;9.500;2023-05-25T02:39:14;101257.97;;;9.60;88.70
15529;BME280;7866;52.280;9.500;2023-05-25T02:44:16;101259.38;;;9.45;89.27
15529;BME280;7866;52.280;9.500;2023-05-25T02:49:17;101261.06;;;9.56;89.38
15529;BME280;7866;52.280;9.500;2023-05-25T02:54:20;101250.09;;;9.69;88.96
15529;BME280;7866;52.280;9.500;2023-05-25T02:59:22;101258.56;;;9.74;88.83
15529;BME280;7866;52.280;9.500;2023-05-25T03:04:25;101254.75;;;9.76;88.41
15529;BME280;7866;52.280;9.500;2023-05-25T03:09:28;101271.50;;;9.88;88.00
15529;BME280;7866;52.280;9.500;2023-05-25T03:14:29;101273.63;;;9.94;88.26
15529;BME280;7866;52.280;9.500;2023-05-25T03:19:31;101275.88;;;9.99;87.94
15529;BME280;7866;52.280;9.500;2023-05-25T03:24:34;101277.81;;;10.06;88.16
15529;BME280;7866;52.280;9.500;2023-05-25T03:29:36;101285.28;;;10.12;87.44
15529;BME280;7866;52.280;9.500;2023-05-25T03:34:38;101276.00;;;10.26;87.43
15529;BME280;7866;52.280;9.500;2023-05-25T03:39:41;101275.16;;;10.26;87.23
15529;BME280;7866;52.280;9.500;2023-05-25T03:44:43;101288.94;;;10.31;86.91
15529;BME280;7866;52.280;9.500;2023-05-25T03:49:44;101290.03;;;10.48;86.68
15529;BME280;7866;52.280;9.500;2023-05-25T03:54:47;101294.13;;;10.42;86.57
15529;BME280;7866;52.280;9.500;2023-05-25T03:59:49;101295.09;;;10.51;86.93
15529;BME280;7866;52.280;9.500;2023-05-25T04:04:51;101302.38;;;10.68;86.15
15529;BME280;7866;52.280;9.500;2023-05-25T04:09:54;101301.06;;;10.82;86.01
15529;BME280;7866;52.280;9.500;2023-05-25T04:14:57;101301.50;;;10.77;85.87
15529;BME280;7866;52.280;9.500;2023-05-25T04:19:58;101306.56;;;10.80;85.93
15529;BME280;7866;52.280;9.500;2023-05-25T04:25:01;101303.69;;;10.92;86.07
15529;BME280;7866;52.280;9.500;2023-05-25T04:30:04;101298.34;;;10.92;86.14
15529;BME280;7866;52.280;9.500;2023-05-25T04:35:06;101303.47;;;10.75;85.41
15529;BME280;7866;52.280;9.500;2023-05-25T04:40:10;101320.50;;;10.84;86.25
15529;BME280;7866;52.280;9.500;2023-05-25T04:45:14;101322.94;;;10.77;86.04
15529;BME280;7866;52.280;9.500;2023-05-25T04:50:16;101324.56;;;10.88;85.63
15529;BME280;7866;52.280;9.500;2023-05-25T04:55:19;101327.97;;;10.90;85.77
15529;BME280;7866;52.280;9.500;2023-05-25T05:00:21;101328.75;;;11.00;84.38
15529;BME280;7866;52.280;9.500;2023-05-25T05:05:22;101338.13;;;10.87;84.85
15529;BME280;7866;52.280;9.500;2023-05-25T05:10:25;101335.34;;;10.69;85.00
15529;BME280;7866;52.280;9.500;2023-05-25T05:15:27;101339.47;;;11.00;85.56
15529;BME280;7866;52.280;9.500;2023-05-25T05:20:29;101344.25;;;11.06;84.65
15529;BME280;7866;52.280;9.500;2023-05-25T05:25:31;101349.69;;;10.87;84.08
15529;BME280;7866;52.280;9.500;2023-05-25T05:30:33;101355.63;;;10.81;84.45
15529;BME280;7866;52.280;9.500;2023-05-25T05:35:35;101368.28;;;10.89;84.79
15529;BME280;7866;52.280;9.500;2023-05-25T05:40:38;101376.38;;;10.79;84.05
15529;BME280;7866;52.280;9.500;2023-05-25T05:45:40;101367.00;;;10.93;84.37
15529;BME280;7866;52.280;9.500;2023-05-25T05:50:41;101370.78;;;11.09;83.54
15529;BME280;7866;52.280;9.500;2023-05-25T05:55:44;101381.47;;;11.19;82.72
15529;BME280;7866;52.280;9.500;2023-05-25T06:00:48;101387.78;;;10.81;83.90
15529;BME280;7866;52.280;9.500;2023-05-25T06:05:50;101402.28;;;10.98;83.60
15529;BME280;7866;52.280;9.500;2023-05-25T06:10:53;101401.66;;;10.67;84.20
15529;BME280;7866;52.280;9.500;2023-05-25T06:15:55;101411.69;;;11.12;82.79
15529;BME280;7866;52.280;9.500;2023-05-25T06:20:57;101423.56;;;10.99;82.88
15529;BME280;7866;52.280;9.500;2023-05-25T06:26:03;101428.38;;;11.05;83.15
15529;BME280;7866;52.280;9.500;2023-05-25T06:31:05;101432.91;;;11.32;81.88
15529;BME280;7866;52.280;9.500;2023-05-25T06:36:07;101434.53;;;11.16;81.25
15529;BME280;7866;52.280;9.500;2023-05-25T06:41:11;101445.13;;;11.45;82.09
15529;BME280;7866;52.280;9.500;2023-05-25T06:46:14;101441.22;;;10.92;81.85
15529;BME280;7866;52.280;9.500;2023-05-25T06:51:17;101442.63;;;10.96;82.70
15529;BME280;7866;52.280;9.500;2023-05-25T06:56:20;101443.84;;;11.12;82.20
15529;BME280;7866;52.280;9.500;2023-05-25T07:01:22;101445.75;;;11.39;81.16
15529;BME280;7866;52.280;9.500;2023-05-25T07:06:23;101448.78;;;11.53;80.70
15529;BME280;7866;52.280;9.500;2023-05-25T07:11:26;101451.13;;;11.29;80.48
15529;BME280;7866;52.280;9.500;2023-05-25T07:16:28;101452.16;;;11.55;79.93
15529;BME280;7866;52.280;9.500;2023-05-25T07:21:31;101458.53;;;11.82;79.85
15529;BME280;7866;52.280;9.500;2023-05-25T07:26:34;101457.91;;;11.98;79.03
15529;BME280;7866;52.280;9.500;2023-05-25T07:31:36;101457.09;;;12.33;78.25
15529;BME280;7866;52.280;9.500;2023-05-25T07:36:38;101459.00;;;12.23;77.72
15529;BME280;7866;52.280;9.500;2023-05-25T07:41:41;101459.94;;;12.49;77.95
15529;BME280;7866;52.280;9.500;2023-05-25T07:46:42;101464.00;;;12.53;77.97
15529;BME280;7866;52.280;9.500;2023-05-25T07:51:44;101457.09;;;12.95;77.66
15529;BME280;7866;52.280;9.500;2023-05-25T07:56:47;101447.47;;;13.36;76.37
15529;BME280;7866;52.280;9.500;2023-05-25T08:01:49;101445.59;;;13.63;75.28
15529;BME280;7866;52.280;9.500;2023-05-25T08:06:50;101464.25;;;13.64;75.17
15529;BME280;7866;52.280;9.500;2023-05-25T08:11:53;101469.88;;;13.37;76.28
15529;BME280;7866;52.280;9.500;2023-05-25T08:16:55;101454.38;;;13.65;75.90
15529;BME280;7866;52.280;9.500;2023-05-25T08:21:57;101466.06;;;13.55;75.13
15529;BME280;7866;52.280;9.500;2023-05-25T08:26:59;101466.31;;;13.10;75.71
15529;BME280;7866;52.280;9.500;2023-05-25T08:32:01;101477.31;;;13.51;76.14
15529;BME280;7866;52.280;9.500;2023-05-25T08:37:03;101481.72;;;13.26;76.54
15529;BME280;7866;52.280;9.500;2023-05-25T08:42:07;101487.06;;;13.00;77.21
15529;BME280;7866;52.280;9.500;2023-05-25T08:47:09;101483.94;;;13.30;77.44
15529;BME280;7866;52.280;9.500;2023-05-25T08:52:13;101491.56;;;13.43;77.45
15529;BME280;7866;52.280;9.500;2023-05-25T08:57:22;101481.97;;;13.75;75.79
15529;BME280;7866;52.280;9.500;2023-05-25T09:02:32;101488.97;;;13.60;75.67
15529;BME280;7866;52.280;9.500;2023-05-25T09:07:35;101485.16;;;14.13;74.72
15529;BME280;7866;52.280;9.500;2023-05-25T09:12:38;101488.84;;;13.61;75.01
15529;BME280;7866;52.280;9.500;2023-05-25T09:17:41;101485.75;;;13.90;74.95
15529;BME280;7866;52.280;9.500;2023-05-25T09:22:43;101492.88;;;14.08;74.50
15529;BME280;7866;52.280;9.500;2023-05-25T09:27:46;101499.56;;;13.95;75.12
15529;BME280;7866;52.280;9.500;2023-05-25T09:32:48;101501.53;;;13.77;76.17
15529;BME280;7866;52.280;9.500;2023-05-25T09:37:52;101504.03;;;14.13;74.99
15529;BME280;7866;52.280;9.500;2023-05-25T09:42:57;101499.88;;;13.92;74.57
15529;BME280;7866;52.280;9.500;2023-05-25T09:47:59;101501.28;;;13.96;75.16
15529;BME280;7866;52.280;9.500;2023-05-25T09:53:01;101509.06;;;14.16;74.53
15529;BME280;7866;52.280;9.500;2023-05-25T09:58:04;101513.25;;;15.10;72.22
15529;BME280;7866;52.280;9.500;2023-05-25T10:03:06;101507.91;;;14.26;73.57
15529;BME280;7866;52.280;9.500;2023-05-25T10:08:09;101515.31;;;14.16;75.17
15529;BME280;7866;52.280;9.500;2023-05-25T10:13:13;101527.06;;;14.66;72.90
15529;BME280;7866;52.280;9.500;2023-05-25T10:18:23;101521.84;;;14.64;73.12
15529;BME280;7866;52.280;9.500;2023-05-25T10:23:27;101524.38;;;15.15;72.74
15529;BME280;7866;52.280;9.500;2023-05-25T10:28:35;101527.56;;;15.18;71.85
15529;BME280;7866;52.280;9.500;2023-05-25T10:33:37;101530.78;;;15.22;70.05
15529;BME280;7866;52.280;9.500;2023-05-25T10:38:39;101519.66;;;15.09;71.03
15529;BME280;7866;52.280;9.500;2023-05-25T10:43:45;101517.91;;;16.35;67.92
15529;BME280;7866;52.280;9.500;2023-05-25T10:48:48;101519.03;;;15.79;68.41
15529;BME280;7866;52.280;9.500;2023-05-25T10:53:58;101529.78;;;14.90;70.87
15529;BME280;7866;52.280;9.500;2023-05-25T10:59:02;101523.88;;;15.03;71.71
15529;BME280;7866;52.280;9.500;2023-05-25T11:04:13;101525.72;;;15.19;72.32
15529;BME280;7866;52.280;9.500;2023-05-25T11:09:23;101534.13;;;15.16;71.02
15529;BME280;7866;52.280;9.500;2023-05-25T11:14:28;101526.56;;;14.87;72.50
15529;BME280;7866;52.280;9.500;2023-05-25T11:19:38;101532.44;;;15.39;69.69
15529;BME280;7866;52.280;9.500;2023-05-25T11:24:40;101533.09;;;15.49;69.92
15529;BME280;7866;52.280;9.500;2023-05-25T11:29:43;101524.31;;;15.72;69.72
15529;BME280;7866;52.280;9.500;2023-05-25T11:34:51;101526.22;;;15.06;70.68
15529;BME280;7866;52.280;9.500;2023-05-25T11:39:53;101516.69;;;15.67;70.05
15529;BME280;7866;52.280;9.500;2023-05-25T11:45:00;101511.25;;;16.15;68.64
15529;BME280;7866;52.280;9.500;2023-05-25T11:50:03;101505.53;;;15.79;68.48
15529;BME280;7866;52.280;9.500;2023-05-25T11:55:10;101518.81;;;15.24;70.36
15529;BME280;7866;52.280;9.500;2023-05-25T12:00:23;101518.63;;;15.18;70.13
15529;BME280;7866;52.280;9.500;2023-05-25T12:05:25;101513.25;;;15.18;69.92
15529;BME280;7866;52.280;9.500;2023-05-25T12:10:48;101503.56;;;15.56;69.61
15529;BME280;7866;52.280;9.500;2023-05-25T12:15:53;101500.50;;;16.07;67.75
15529;BME280;7866;52.280;9.500;2023-05-25T12:20:56;101495.97;;;15.99;67.47
15529;BME280;7866;52.280;9.500;2023-05-25T12:26:08;101484.31;;;15.98;67.78
15529;BME280;7866;52.280;9.500;2023-05-25T12:31:21;101491.69;;;16.13;66.81
15529;BME280;7866;52.280;9.500;2023-05-25T12:36:35;101474.19;;;16.55;67.37
15529;BME280;7866;52.280;9.500;2023-05-25T12:41:47;101468.06;;;17.36;62.86
15529;BME280;7866;52.280;9.500;2023-05-25T12:46:52;101466.16;;;17.66;62.21
15529;BME280;7866;52.280;9.500;2023-05-25T12:51:54;101471.22;;;17.55;61.81
15529;BME280;7866;52.280;9.500;2023-05-25T12:56:56;101466.66;;;17.40;62.60
15529;BME280;7866;52.280;9.500;2023-05-25T13:01:59;101467.03;;;16.85;65.20
15529;BME280;7866;52.280;9.500;2023-05-25T13:07:02;101468.13;;;18.60;61.15
15529;BME280;7866;52.280;9.500;2023-05-25T13:12:04;101461.59;;;17.96;61.73
15529;BME280;7866;52.280;9.500;2023-05-25T13:17:07;101460.31;;;17.48;63.80
15529;BME280;7866;52.280;9.500;2023-05-25T13:22:09;101460.69;;;17.75;62.99
15529;BME280;7866;52.280;9.500;2023-05-25T13:27:10;101450.69;;;17.16;61.58
15529;BME280;7866;52.280;9.500;2023-05-25T13:32:13;101452.00;;;17.49;62.59
15529;BME280;7866;52.280;9.500;2023-05-25T13:37:15;101442.94;;;17.28;62.94
15529;BME280;7866;52.280;9.500;2023-05-25T13:42:17;101434.97;;;17.85;59.71
15529;BME280;7866;52.280;9.500;2023-05-25T13:47:20;101443.22;;;17.47;61.10
15529;BME280;7866;52.280;9.500;2023-05-25T13:52:21;101427.81;;;17.33;62.62
15529;BME280;7866;52.280;9.500;2023-05-25T13:57:23;101434.13;;;17.55;61.91
15529;BME280;7866;52.280;9.500;2023-05-25T14:02:26;101422.31;;;18.29;61.80
15529;BME280;7866;52.280;9.500;2023-05-25T14:07:31;101430.75;;;18.62;58.94
15529;BME280;7866;52.280;9.500;2023-05-25T14:12:33;101430.41;;;17.86;59.68
15529;BME280;7866;52.280;9.500;2023-05-25T14:17:36;101425.09;;;17.33;60.39
15529;BME280;7866;52.280;9.500;2023-05-25T14:22:37;101423.13;;;17.42;60.47
15529;BME280;7866;52.280;9.500;2023-05-25T14:27:39;101417.03;;;17.55;61.46
15529;BME280;7866;52.280;9.500;2023-05-25T14:32:42;101420.47;;;19.00;56.72
15529;BME280;7866;52.280;9.500;2023-05-25T14:37:43;101412.69;;;19.66;55.90
15529;BME280;7866;52.280;9.500;2023-05-25T14:42:45;101404.56;;;19.73;54.50
15529;BME280;7866;52.280;9.500;2023-05-25T14:47:48;101413.31;;;18.71;57.59
15529;BME280;7866;52.280;9.500;2023-05-25T14:52:50;101413.19;;;17.93;58.84
15529;BME280;7866;52.280;9.500;2023-05-25T14:57:52;101411.06;;;18.53;56.82
15529;BME280;7866;52.280;9.500;2023-05-25T15:02:55;101410.63;;;18.28;57.19
15529;BME280;7866;52.280;9.500;2023-05-25T15:07:56;101415.91;;;19.42;55.73
15529;BME280;7866;52.280;9.500;2023-05-25T15:12:58;101420.25;;;19.02;55.77
15529;BME280;7866;52.280;9.500;2023-05-25T15:18:01;101415.88;;;18.73;55.90
15529;BME280;7866;52.280;9.500;2023-05-25T15:23:03;101409.34;;;18.24;57.78
15529;BME280;7866;52.280;9.500;2023-05-25T15:28:04;101404.69;;;18.39;57.49
15529;BME280;7866;52.280;9.500;2023-05-25T15:33:08;101402.84;;;18.68;55.61
15529;BME280;7866;52.280;9.500;2023-05-25T15:38:09;101393.09;;;19.02;54.67
15529;BME280;7866;52.280;9.500;2023-05-25T15:43:11;101389.00;;;19.12;54.19
15529;BME280;7866;52.280;9.500;2023-05-25T15:48:14;101401.41;;;18.44;56.02
15529;BME280;7866;52.280;9.500;2023-05-25T15:53:16;101390.66;;;18.14;57.11
15529;BME280;7866;52.280;9.500;2023-05-25T15:58:17;101390.09;;;17.97;57.62
15529;BME280;7866;52.280;9.500;2023-05-25T16:03:20;101389.94;;;18.27;57.16
15529;BME280;7866;52.280;9.500;2023-05-25T16:08:22;101390.78;;;18.70;56.37
15529;BME280;7866;52.280;9.500;2023-05-25T16:13:23;101394.06;;;18.66;56.11
15529;BME280;7866;52.280;9.500;2023-05-25T16:18:26;101386.78;;;18.45;56.66
15529;BME280;7866;52.280;9.500;2023-05-25T16:23:28;101386.41;;;18.05;57.95
15529;BME280;7866;52.280;9.500;2023-05-25T16:28:30;101383.03;;;18.03;57.86
15529;BME280;7866;52.280;9.500;2023-05-25T16:33:33;101380.13;;;17.83;58.88
15529;BME280;7866;52.280;9.500;2023-05-25T16:38:35;101381.94;;;17.76;59.11
15529;BME280;7866;52.280;9.500;2023-05-25T16:43:36;101376.09;;;17.79;59.12
15529;BME280;7866;52.280;9.500;2023-05-25T16:48:39;101367.88;;;17.87;58.95
15529;BME280;7866;52.280;9.500;2023-05-25T16:53:41;101363.75;;;17.91;59.17
15529;BME280;7866;52.280;9.500;2023-05-25T17:03:48;101369.22;;;17.77;58.24
15529;BME280;7866;52.280;9.500;2023-05-25T17:08:50;101373.69;;;18.06;57.89
15529;BME280;7866;52.280;9.500;2023-05-25T17:13:51;101371.97;;;17.83;58.24
15529;BME280;7866;52.280;9.500;2023-05-25T17:18:54;101376.75;;;17.66;58.70
15529;BME280;7866;52.280;9.500;2023-05-25T17:23:56;101375.59;;;17.39;59.58
15529;BME280;7866;52.280;9.500;2023-05-25T17:28:58;101374.88;;;17.16;60.19
15529;BME280;7866;52.280;9.500;2023-05-25T17:34:01;101377.28;;;17.11;59.71
15529;BME280;7866;52.280;9.500;2023-05-25T17:39:03;101374.97;;;17.08;60.02
15529;BME280;7866;52.280;9.500;2023-05-25T17:44:05;101396.25;;;16.96;59.87
15529;BME280;7866;52.280;9.500;2023-05-25T17:49:08;101385.69;;;17.01;60.18
15529;BME280;7866;52.280;9.500;2023-05-25T17:54:09;101384.03;;;17.00;60.30
15529;BME280;7866;52.280;9.500;2023-05-25T17:59:14;101386.34;;;16.88;60.24
15529;BME280;7866;52.280;9.500;2023-05-25T18:04:17;101386.34;;;17.03;59.99
15529;BME280;7866;52.280;9.500;2023-05-25T18:09:20;101380.84;;;16.96;60.48
15529;BME280;7866;52.280;9.500;2023-05-25T18:14:21;101389.13;;;16.80;60.80
15529;BME280;7866;52.280;9.500;2023-05-25T18:19:24;101376.66;;;16.71;60.26
15529;BME280;7866;52.280;9.500;2023-05-25T18:24:26;101390.34;;;16.55;60.75
15529;BME280;7866;52.280;9.500;2023-05-25T18:29:28;101395.47;;;16.49;61.09
15529;BME280;7866;52.280;9.500;2023-05-25T18:34:31;101403.56;;;16.49;61.50
15529;BME280;7866;52.280;9.500;2023-05-25T18:39:33;101396.69;;;16.24;61.86
15529;BME280;7866;52.280;9.500;2023-05-25T18:44:35;101399.47;;;16.08;62.29
15529;BME280;7866;52.280;9.500;2023-05-25T18:49:37;101404.50;;;15.88;62.62
15529;BME280;7866;52.280;9.500;2023-05-25T18:54:39;101408.84;;;15.66;63.30
15529;BME280;7866;52.280;9.500;2023-05-25T18:59:41;101412.59;;;15.57;63.86
15529;BME280;7866;52.280;9.500;2023-05-25T19:04:44;101413.13;;;15.52;63.96
15529;BME280;7866;52.280;9.500;2023-05-25T19:09:45;101425.16;;;15.33;64.78
15529;BME280;7866;52.280;9.500;2023-05-25T19:14:48;101426.03;;;15.25;65.34
15529;BME280;7866;52.280;9.500;2023-05-25T19:19:51;101435.00;;;15.10;66.02
15529;BME280;7866;52.280;9.500;2023-05-25T19:24:52;101441.59;;;14.91;66.38
15529;BME280;7866;52.280;9.500;2023-05-25T19:29:54;101448.34;;;14.78;66.61
15529;BME280;7866;52.280;9.500;2023-05-25T19:34:57;101453.41;;;14.65;67.40
15529;BME280;7866;52.280;9.500;2023-05-25T19:39:58;101457.63;;;14.51;67.73
15529;BME280;7866;52.280;9.500;2023-05-25T19:45:00;101456.06;;;14.33;68.54
15529;BME280;7866;52.280;9.500;2023-05-25T19:50:04;101462.59;;;14.14;68.95
15529;BME280;7866;52.280;9.500;2023-05-25T19:55:06;101462.56;;;14.05;69.37
15529;BME280;7866;52.280;9.500;2023-05-25T20:00:08;101467.25;;;13.95;69.42
15529;BME280;7866;52.280;9.500;2023-05-25T20:05:12;101471.06;;;13.76;69.96
15529;BME280;7866;52.280;9.500;2023-05-25T20:10:14;101477.09;;;13.70;70.08
15529;BME280;7866;52.280;9.500;2023-05-25T20:15:15;101480.75;;;13.61;70.18
15529;BME280;7866;52.280;9.500;2023-05-25T20:20:18;101478.03;;;13.53;70.22
15529;BME280;7866;52.280;9.500;2023-05-25T20:25:20;101478.13;;;13.43;70.20
15529;BME280;7866;52.280;9.500;2023-05-25T20:30:21;101488.47;;;13.30;70.49
15529;BME280;7866;52.280;9.500;2023-05-25T20:35:24;101485.09;;;13.28;70.73
15529;BME280;7866;52.280;9.500;2023-05-25T20:40:26;101490.88;;;13.15;71.23
15529;BME280;7866;52.280;9.500;2023-05-25T20:45:28;101490.97;;;13.05;71.09
15529;BME280;7866;52.280;9.500;2023-05-25T20:50:31;101494.91;;;12.93;71.65
15529;BME280;7866;52.280;9.500;2023-05-25T20:55:32;101502.44;;;12.90;71.74
15529;BME280;7866;52.280;9.500;2023-05-25T21:00:34;101499.41;;;12.67;71.73
15529;BME280;7866;52.280;9.500;2023-05-25T21:05:37;101505.84;;;12.74;72.20
15529;BME280;7866;52.280;9.500;2023-05-25T21:10:39;101500.94;;;12.51;71.80
15529;BME280;7866;52.280;9.500;2023-05-25T21:15:41;101498.31;;;12.42;72.32
15529;BME280;7866;52.280;9.500;2023-05-25T21:20:44;101493.78;;;12.42;72.55
15529;BME280;7866;52.280;9.500;2023-05-25T21:25:45;101500.00;;;12.43;72.70
15529;BME280;7866;52.280;9.500;2023-05-25T21:30:47;101514.19;;;12.35;72.78
15529;BME280;7866;52.280;9.500;2023-05-25T21:35:50;101509.75;;;12.26;73.23
15529;BME280;7866;52.280;9.500;2023-05-25T21:40:52;101516.00;;;12.17;73.71
15529;BME280;7866;52.280;9.500;2023-05-25T21:45:54;101515.78;;;12.10;73.81
15529;BME280;7866;52.280;9.500;2023-05-25T21:50:57;101520.53;;;12.16;73.50
15529;BME280;7866;52.280;9.500;2023-05-25T21:56:00;101523.09;;;11.90;73.85
15529;BME280;7866;52.280;9.500;2023-05-25T22:01:02;101528.31;;;11.82;74.97
15529;BME280;7866;52.280;9.500;2023-05-25T22:06:05;101533.44;;;11.85;74.65
15529;BME280;7866;52.280;9.500;2023-05-25T22:11:07;101534.16;;;11.68;74.17
15529;BME280;7866;52.280;9.500;2023-05-25T22:16:08;101539.81;;;11.65;74.92
15529;BME280;7866;52.280;9.500;2023-05-25T22:21:13;101547.47;;;11.59;75.15
15529;BME280;7866;52.280;9.500;2023-05-25T22:26:15;101532.91;;;11.62;74.92
15529;BME280;7866;52.280;9.500;2023-05-25T22:31:16;101537.16;;;11.55;75.29
15529;BME280;7866;52.280;9.500;2023-05-25T22:36:19;101536.63;;;11.51;75.20
15529;BME280;7866;52.280;9.500;2023-05-25T22:41:21;101544.03;;;11.30;75.43
15529;BME280;7866;52.280;9.500;2023-05-25T22:46:23;101546.09;;;11.46;75.98
15529;BME280;7866;52.280;9.500;2023-05-25T22:51:26;101553.31;;;11.35;75.68
15529;BME280;7866;52.280;9.500;2023-05-25T22:56:27;101547.97;;;11.26;76.31
15529;BME280;7866;52.280;9.500;2023-05-25T23:01:29;101550.22;;;11.30;76.18
15529;BME280;7866;52.280;9.500;2023-05-25T23:06:32;101547.53;;;11.21;76.47
15529;BME280;7866;52.280;9.500;2023-05-25T23:11:34;101545.19;;;11.18;76.03
15529;BME280;7866;52.280;9.500;2023-05-25T23:16:36;101547.16;;;11.06;77.23
15529;BME280;7866;52.280;9.500;2023-05-25T23:21:39;101537.56;;;11.03;77.40
15529;BME280;7866;52.280;9.500;2023-05-25T23:26:41;101539.69;;;10.90;77.30
15529;BME280;7866;52.280;9.500;2023-05-25T23:31:42;101532.22;;;10.94;77.73
15529;BME280;7866;52.280;9.500;2023-05-25T23:36:45;101520.66;;;10.93;77.86
15529;BME280;7866;52.280;9.500;2023-05-25T23:41:47;101527.13;;;10.91;77.85
15529;BME280;7866;52.280;9.500;2023-05-25T23:46:49;101533.19;;;10.83;77.26
15529;BME280;7866;52.280;9.500;2023-05-25T23:51:52;101539.97;;;10.87;77.67
15529;BME280;7866;52.280;9.500;2023-05-25T23:56:54;101537.44;;;10.85;76.86
